createdAt,value
2018-12-18T00:00:21.820Z,1018.36
2018-12-18T00:01:21.764Z,1018.30
2018-12-18T00:02:22.040Z,1018.28
2018-12-18T00:03:21.744Z,1018.28
2018-12-18T00:04:21.732Z,1018.29
2018-12-18T00:05:21.730Z,1018.25
2018-12-18T00:06:21.709Z,1018.25
2018-12-18T00:07:21.698Z,1018.25
2018-12-18T00:08:21.734Z,1018.26
2018-12-18T00:09:21.678Z,1018.28
2018-12-18T00:10:21.666Z,1018.25
2018-12-18T00:11:21.659Z,1018.30
2018-12-18T00:12:21.652Z,1018.30
2018-12-18T00:13:21.636Z,1018.22
2018-12-18T00:14:21.672Z,1018.25
2018-12-18T00:15:21.614Z,1018.21
2018-12-18T00:16:21.605Z,1018.22
2018-12-18T00:17:21.590Z,1018.23
2018-12-18T00:18:21.580Z,1018.28
2018-12-18T00:19:21.570Z,1018.19
2018-12-18T00:20:21.609Z,1018.25
2018-12-18T00:21:21.546Z,1018.18
2018-12-18T00:22:21.538Z,1018.17
2018-12-18T00:23:21.525Z,1018.16
2018-12-18T00:24:21.515Z,1018.15
2018-12-18T00:25:21.507Z,1018.18
2018-12-18T00:26:21.532Z,1018.17
2018-12-18T00:27:21.484Z,1018.17
2018-12-18T00:28:21.472Z,1018.17
2018-12-18T00:29:21.486Z,1018.22
2018-12-18T00:30:21.453Z,1018.22
2018-12-18T00:31:21.439Z,1018.18
2018-12-18T00:32:21.468Z,1018.21
2018-12-18T00:33:21.419Z,1018.22
2018-12-18T00:34:21.421Z,1018.20
2018-12-18T00:35:21.395Z,1018.23
2018-12-18T00:36:21.386Z,1018.18
2018-12-18T00:37:21.423Z,1018.20
2018-12-18T00:38:21.365Z,1018.20
2018-12-18T00:39:21.352Z,1018.16
2018-12-18T00:40:21.346Z,1018.17
2018-12-18T00:41:21.334Z,1018.17
2018-12-18T00:42:21.321Z,1018.16
2018-12-18T00:43:21.359Z,1018.19
2018-12-18T00:44:21.299Z,1018.11
2018-12-18T00:45:21.287Z,1018.15
2018-12-18T00:46:21.277Z,1018.13
2018-12-18T00:47:21.268Z,1018.14
2018-12-18T00:48:21.255Z,1018.12
2018-12-18T00:49:21.286Z,1018.13
2018-12-18T00:50:21.240Z,1018.16
2018-12-18T00:51:21.280Z,1018.16
2018-12-18T00:52:21.212Z,1018.15
2018-12-18T00:53:21.201Z,1018.13
2018-12-18T00:54:21.191Z,1018.12
2018-12-18T00:55:21.180Z,1018.13
2018-12-18T00:56:21.169Z,1018.15
2018-12-18T00:57:21.197Z,1018.16
2018-12-18T00:58:21.192Z,1018.14
2018-12-18T00:59:21.143Z,1018.12
2018-12-18T01:00:21.130Z,1018.12
2018-12-18T01:01:21.115Z,1018.15
2018-12-18T01:02:21.104Z,1018.13
2018-12-18T01:03:21.093Z,1018.15
2018-12-18T01:04:21.132Z,1018.17
2018-12-18T01:05:21.073Z,1018.16
2018-12-18T01:06:21.112Z,1018.16
2018-12-18T01:07:21.051Z,1018.16
2018-12-18T01:08:21.045Z,1018.18
2018-12-18T01:09:21.029Z,1018.19
2018-12-18T01:10:21.017Z,1018.19
2018-12-18T01:11:21.007Z,1018.22
2018-12-18T01:12:21.057Z,1018.22
2018-12-18T01:13:20.985Z,1018.27
2018-12-18T01:14:20.979Z,1018.23
2018-12-18T01:15:20.963Z,1018.21
2018-12-18T01:16:20.953Z,1018.20
2018-12-18T01:17:20.943Z,1018.22
2018-12-18T01:18:20.969Z,1018.23
2018-12-18T01:19:20.927Z,1018.25
2018-12-18T01:20:20.966Z,1018.24
2018-12-18T01:21:20.898Z,1018.22
2018-12-18T01:22:20.890Z,1018.17
2018-12-18T01:23:20.878Z,1018.20
2018-12-18T01:24:20.907Z,1018.22
2018-12-18T01:25:20.865Z,1018.21
2018-12-18T01:26:20.844Z,1018.21
2018-12-18T01:27:20.834Z,1018.16
2018-12-18T01:28:20.826Z,1018.19
2018-12-18T01:29:20.855Z,1018.17
2018-12-18T01:30:20.801Z,1018.23
2018-12-18T01:31:20.793Z,1018.20
2018-12-18T01:32:20.781Z,1018.23
2018-12-18T01:33:20.783Z,1018.21
2018-12-18T01:34:20.758Z,1018.18
2018-12-18T01:35:20.793Z,1018.17
2018-12-18T01:36:20.740Z,1018.17
2018-12-18T01:37:20.725Z,1018.18
2018-12-18T01:38:20.715Z,1018.12
2018-12-18T01:39:20.751Z,1018.16
2018-12-18T01:40:20.694Z,1018.10
2018-12-18T01:41:20.686Z,1018.06
2018-12-18T01:42:20.670Z,1018.09
2018-12-18T01:43:20.662Z,1018.07
2018-12-18T01:44:20.695Z,1018.03
2018-12-18T01:45:20.640Z,1018.09
2018-12-18T01:46:20.628Z,1018.07
2018-12-18T01:47:20.662Z,1018.07
2018-12-18T01:48:20.657Z,1018.07
2018-12-18T01:49:20.596Z,1018.06
2018-12-18T01:50:20.585Z,1018.08
2018-12-18T01:51:20.573Z,1018.12
2018-12-18T01:52:20.838Z,1018.09
2018-12-18T01:53:20.552Z,1018.18
2018-12-18T01:54:20.544Z,1018.16
2018-12-18T01:55:20.553Z,1018.22
2018-12-18T01:56:20.525Z,1018.18
2018-12-18T01:57:20.510Z,1018.20
2018-12-18T01:58:20.547Z,1018.24
2018-12-18T01:59:20.496Z,1018.28
2018-12-18T02:00:20.508Z,1018.23
2018-12-18T02:01:20.467Z,1018.21
2018-12-18T02:02:20.457Z,1018.27
2018-12-18T02:03:20.445Z,1018.25
2018-12-18T02:04:20.490Z,1018.21
2018-12-18T02:05:20.426Z,1018.15
2018-12-18T02:06:20.418Z,1018.18
2018-12-18T02:07:20.403Z,1018.15
2018-12-18T02:08:20.393Z,1018.08
2018-12-18T02:09:20.386Z,1018.13
2018-12-18T02:10:20.417Z,1018.11
2018-12-18T02:11:20.358Z,1018.09
2018-12-18T02:12:20.347Z,1018.11
2018-12-18T02:13:20.339Z,1018.15
2018-12-18T02:14:20.326Z,1018.13
2018-12-18T02:15:20.356Z,1018.08
2018-12-18T02:16:20.346Z,1018.09
2018-12-18T02:17:20.294Z,1018.14
2018-12-18T02:18:20.282Z,1018.12
2018-12-18T02:19:20.272Z,1018.07
2018-12-18T02:20:20.261Z,1018.09
2018-12-18T02:21:20.299Z,1018.11
2018-12-18T02:22:20.244Z,1018.04
2018-12-18T02:23:20.230Z,1018.07
2018-12-18T02:24:20.265Z,1018.02
2018-12-18T02:25:20.212Z,1018.04
2018-12-18T02:26:20.196Z,1017.99
2018-12-18T02:27:20.188Z,1018.03
2018-12-18T02:28:20.176Z,1018.00
2018-12-18T02:29:20.213Z,1018.00
2018-12-18T02:30:20.153Z,1017.98
2018-12-18T02:31:20.146Z,1017.99
2018-12-18T02:32:20.134Z,1017.96
2018-12-18T02:33:20.126Z,1017.97
2018-12-18T02:34:20.111Z,1017.96
2018-12-18T02:35:20.144Z,1017.98
2018-12-18T02:36:20.089Z,1018.01
2018-12-18T02:37:20.077Z,1018.02
2018-12-18T02:38:20.066Z,1018.04
2018-12-18T02:39:20.098Z,1018.07
2018-12-18T02:40:20.050Z,1018.09
2018-12-18T02:41:20.034Z,1018.04
2018-12-18T02:42:20.025Z,1018.07
2018-12-18T02:43:20.014Z,1018.07
2018-12-18T02:44:20.041Z,1018.04
2018-12-18T02:45:20.001Z,1018.05
2018-12-18T02:46:19.982Z,1018.01
2018-12-18T02:47:20.015Z,1018.02
2018-12-18T02:48:19.957Z,1018.05
2018-12-18T02:49:19.949Z,1018.06
2018-12-18T02:50:19.935Z,1018.05
2018-12-18T02:51:19.925Z,1018.07
2018-12-18T02:52:19.955Z,1018.09
2018-12-18T02:53:19.906Z,1018.09
2018-12-18T02:54:19.893Z,1018.11
2018-12-18T02:55:19.883Z,1018.10
2018-12-18T02:56:19.872Z,1018.14
2018-12-18T02:57:19.860Z,1018.10
2018-12-18T02:58:19.889Z,1018.06
2018-12-18T02:59:19.877Z,1018.05
2018-12-18T03:00:19.872Z,1018.06
2018-12-18T03:01:19.821Z,1018.02
2018-12-18T03:02:19.809Z,1018.12
2018-12-18T03:03:19.801Z,1018.09
2018-12-18T03:04:21.657Z,1018.08
2018-12-18T03:05:19.776Z,1018.04
2018-12-18T03:06:19.806Z,1018.05
2018-12-18T03:07:19.790Z,1018.09
2018-12-18T03:08:19.742Z,1018.07
2018-12-18T03:09:19.739Z,1018.10
2018-12-18T03:10:19.762Z,1018.10
2018-12-18T03:11:19.711Z,1018.09
2018-12-18T03:12:19.700Z,1018.12
2018-12-18T03:13:19.969Z,1018.09
2018-12-18T03:14:19.679Z,1018.09
2018-12-18T03:15:19.667Z,1018.05
2018-12-18T03:16:19.656Z,1018.08
2018-12-18T03:17:19.648Z,1018.08
2018-12-18T03:18:19.635Z,1018.06
2018-12-18T03:19:19.668Z,1018.02
2018-12-18T03:20:19.611Z,1018.00
2018-12-18T03:21:19.604Z,1017.99
2018-12-18T03:22:19.632Z,1018.00
2018-12-18T03:23:19.582Z,1018.01
2018-12-18T03:24:19.613Z,1017.99
2018-12-18T03:25:19.558Z,1017.96
2018-12-18T03:26:19.546Z,1017.97
2018-12-18T03:27:19.538Z,1017.92
2018-12-18T03:28:19.551Z,1017.89
2018-12-18T03:29:19.513Z,1017.88
2018-12-18T03:30:19.544Z,1017.88
2018-12-18T03:31:19.497Z,1017.89
2018-12-18T03:32:19.483Z,1017.87
2018-12-18T03:33:19.471Z,1017.90
2018-12-18T03:34:19.508Z,1017.89
2018-12-18T03:35:19.452Z,1017.90
2018-12-18T03:36:19.437Z,1017.88
2018-12-18T03:37:19.429Z,1017.86
2018-12-18T03:38:19.415Z,1017.89
2018-12-18T03:39:19.407Z,1017.84
2018-12-18T03:40:19.436Z,1017.84
2018-12-18T03:41:19.385Z,1017.82
2018-12-18T03:42:19.427Z,1017.84
2018-12-18T03:43:19.361Z,1017.84
2018-12-18T03:44:19.353Z,1017.83
2018-12-18T03:45:19.342Z,1017.81
2018-12-18T03:46:19.332Z,1017.83
2018-12-18T03:47:19.323Z,1017.82
2018-12-18T03:48:19.365Z,1017.81
2018-12-18T03:49:19.299Z,1017.79
2018-12-18T03:50:19.288Z,1017.78
2018-12-18T03:51:19.281Z,1017.70
2018-12-18T03:52:19.265Z,1017.75
2018-12-18T03:53:19.257Z,1017.73
2018-12-18T03:54:19.284Z,1017.73
2018-12-18T03:55:19.233Z,1017.69
2018-12-18T03:56:19.224Z,1017.72
2018-12-18T03:57:19.211Z,1017.71
2018-12-18T03:58:19.203Z,1017.73
2018-12-18T03:59:19.195Z,1017.76
2018-12-18T04:00:19.231Z,1017.79
2018-12-18T04:01:19.171Z,1017.76
2018-12-18T04:02:19.159Z,1017.76
2018-12-18T04:03:19.205Z,1017.79
2018-12-18T04:04:19.139Z,1017.81
2018-12-18T04:05:19.206Z,1017.81
2018-12-18T04:06:19.163Z,1017.81
2018-12-18T04:07:19.107Z,1017.78
2018-12-18T04:08:19.093Z,1017.79
2018-12-18T04:09:19.083Z,1017.82
2018-12-18T04:10:19.075Z,1017.82
2018-12-18T04:11:19.061Z,1017.78
2018-12-18T04:12:19.100Z,1017.80
2018-12-18T04:13:19.041Z,1017.79
2018-12-18T04:14:19.035Z,1017.84
2018-12-18T04:15:19.020Z,1017.84
2018-12-18T04:16:19.007Z,1017.83
2018-12-18T04:17:19.000Z,1017.85
2018-12-18T04:18:19.036Z,1017.81
2018-12-18T04:19:18.976Z,1017.82
2018-12-18T04:20:18.963Z,1017.81
2018-12-18T04:21:18.993Z,1017.78
2018-12-18T04:22:18.946Z,1017.67
2018-12-18T04:23:18.931Z,1017.73
2018-12-18T04:24:18.927Z,1017.71
2018-12-18T04:25:18.959Z,1017.70
2018-12-18T04:26:18.901Z,1017.70
2018-12-18T04:27:18.891Z,1017.68
2018-12-18T04:28:18.879Z,1017.69
2018-12-18T04:29:18.868Z,1017.68
2018-12-18T04:30:18.910Z,1017.62
2018-12-18T04:31:18.846Z,1017.65
2018-12-18T04:32:18.835Z,1017.61
2018-12-18T04:33:18.826Z,1017.66
2018-12-18T04:34:18.813Z,1017.58
2018-12-18T04:35:18.811Z,1017.55
2018-12-18T04:36:18.841Z,1017.55
2018-12-18T04:37:18.782Z,1017.50
2018-12-18T04:38:18.769Z,1017.50
2018-12-18T04:39:18.765Z,1017.50
2018-12-18T04:40:18.748Z,1017.49
2018-12-18T04:41:18.747Z,1017.46
2018-12-18T04:42:18.775Z,1017.43
2018-12-18T04:43:18.725Z,1017.48
2018-12-18T04:44:18.707Z,1017.41
2018-12-18T04:45:18.693Z,1017.36
2018-12-18T04:46:18.689Z,1017.34
2018-12-18T04:47:18.677Z,1017.33
2018-12-18T04:48:18.710Z,1017.35
2018-12-18T04:49:18.650Z,1017.38
2018-12-18T04:50:18.682Z,1017.38
2018-12-18T04:51:18.629Z,1017.36
2018-12-18T04:52:18.625Z,1017.39
2018-12-18T04:53:18.651Z,1017.33
2018-12-18T04:54:18.596Z,1017.33
2018-12-18T04:55:18.587Z,1017.35
2018-12-18T04:56:18.575Z,1017.32
2018-12-18T04:57:18.564Z,1017.32
2018-12-18T04:58:18.554Z,1017.31
2018-12-18T04:59:18.588Z,1017.28
2018-12-18T05:00:18.546Z,1017.29
2018-12-18T05:01:18.568Z,1017.29
2018-12-18T05:02:18.510Z,1017.28
2018-12-18T05:03:18.502Z,1017.33
2018-12-18T05:04:18.501Z,1017.34
2018-12-18T05:05:18.515Z,1017.28
2018-12-18T05:06:18.468Z,1017.29
2018-12-18T05:07:18.604Z,1017.27
2018-12-18T05:08:18.493Z,1017.28
2018-12-18T05:09:18.438Z,1017.27
2018-12-18T05:10:18.435Z,1017.33
2018-12-18T05:11:18.415Z,1017.32
2018-12-18T05:12:18.406Z,1017.34
2018-12-18T05:13:18.396Z,1017.33
2018-12-18T05:14:18.429Z,1017.36
2018-12-18T05:15:18.387Z,1017.35
2018-12-18T05:16:18.358Z,1017.36
2018-12-18T05:17:18.350Z,1017.42
2018-12-18T05:18:18.355Z,1017.36
2018-12-18T05:19:18.370Z,1017.33
2018-12-18T05:20:18.315Z,1017.37
2018-12-18T05:21:18.306Z,1017.41
2018-12-18T05:22:18.344Z,1017.35
2018-12-18T05:23:18.284Z,1017.37
2018-12-18T05:24:18.277Z,1017.34
2018-12-18T05:25:18.264Z,1017.35
2018-12-18T05:26:18.254Z,1017.34
2018-12-18T05:27:18.242Z,1017.31
2018-12-18T05:28:18.274Z,1017.27
2018-12-18T05:29:18.220Z,1017.34
2018-12-18T05:30:18.210Z,1017.32
2018-12-18T05:31:18.201Z,1017.35
2018-12-18T05:32:18.189Z,1017.37
2018-12-18T05:33:18.179Z,1017.38
2018-12-18T05:34:18.220Z,1017.38
2018-12-18T05:35:18.155Z,1017.38
2018-12-18T05:36:18.196Z,1017.39
2018-12-18T05:37:18.140Z,1017.38
2018-12-18T05:38:18.125Z,1017.39
2018-12-18T05:39:18.115Z,1017.35
2018-12-18T05:40:18.104Z,1017.34
2018-12-18T05:41:18.094Z,1017.33
2018-12-18T05:42:18.368Z,1017.40
2018-12-18T05:43:18.072Z,1017.40
2018-12-18T05:44:18.067Z,1017.40
2018-12-18T05:45:18.049Z,1017.46
2018-12-18T05:46:18.038Z,1017.47
2018-12-18T05:47:18.035Z,1017.49
2018-12-18T05:48:18.058Z,1017.54
2018-12-18T05:49:18.051Z,1017.55
2018-12-18T05:50:18.007Z,1017.54
2018-12-18T05:51:17.985Z,1017.53
2018-12-18T05:52:17.974Z,1017.57
2018-12-18T05:53:17.963Z,1017.59
2018-12-18T05:54:17.950Z,1017.58
2018-12-18T05:55:17.988Z,1017.57
2018-12-18T05:56:17.930Z,1017.57
2018-12-18T05:57:17.921Z,1017.57
2018-12-18T05:58:17.963Z,1017.55
2018-12-18T05:59:17.899Z,1017.56
2018-12-18T06:00:17.888Z,1017.52
2018-12-18T06:01:17.886Z,1017.53
2018-12-18T06:02:17.873Z,1017.57
2018-12-18T06:03:17.869Z,1017.50
2018-12-18T06:04:17.896Z,1017.47
2018-12-18T06:05:17.842Z,1017.48
2018-12-18T06:06:17.830Z,1017.53
2018-12-18T06:07:17.817Z,1017.55
2018-12-18T06:08:17.807Z,1017.55
2018-12-18T06:09:17.790Z,1017.51
2018-12-18T06:10:18.068Z,1017.51
2018-12-18T06:11:17.773Z,1017.54
2018-12-18T06:12:17.785Z,1017.55
2018-12-18T06:13:17.753Z,1017.53
2018-12-18T06:14:17.738Z,1017.58
2018-12-18T06:15:17.735Z,1017.59
2018-12-18T06:16:17.769Z,1017.62
2018-12-18T06:17:17.758Z,1017.64
2018-12-18T06:18:17.696Z,1017.63
2018-12-18T06:19:17.704Z,1017.63
2018-12-18T06:20:17.686Z,1017.61
2018-12-18T06:21:17.678Z,1017.59
2018-12-18T06:22:17.656Z,1017.63
2018-12-18T06:23:17.721Z,1017.68
2018-12-18T06:24:17.631Z,1017.63
2018-12-18T06:25:17.621Z,1017.61
2018-12-18T06:26:17.615Z,1017.67
2018-12-18T06:27:17.613Z,1017.63
2018-12-18T06:28:17.646Z,1017.62
2018-12-18T06:29:17.689Z,1017.65
2018-12-18T06:30:17.583Z,1017.58
2018-12-18T06:31:17.570Z,1017.63
2018-12-18T06:32:17.581Z,1017.60
2018-12-18T06:33:17.555Z,1017.64
2018-12-18T06:34:17.578Z,1017.62
2018-12-18T06:35:17.556Z,1017.62
2018-12-18T06:36:17.563Z,1017.58
2018-12-18T06:37:17.492Z,1017.58
2018-12-18T06:38:17.518Z,1017.57
2018-12-18T06:39:17.469Z,1017.56
2018-12-18T06:40:17.462Z,1017.60
2018-12-18T06:41:17.454Z,1017.62
2018-12-18T06:42:17.481Z,1017.55
2018-12-18T06:43:17.458Z,1017.59
2018-12-18T06:44:17.416Z,1017.56
2018-12-18T06:45:17.441Z,1017.57
2018-12-18T06:46:17.443Z,1017.53
2018-12-18T06:47:17.383Z,1017.52
2018-12-18T06:48:17.439Z,1017.55
2018-12-18T06:49:17.388Z,1017.55
2018-12-18T06:50:17.376Z,1017.53
2018-12-18T06:51:17.338Z,1017.54
2018-12-18T06:52:17.329Z,1017.57
2018-12-18T06:53:17.323Z,1017.59
2018-12-18T06:54:17.394Z,1017.57
2018-12-18T06:55:17.299Z,1017.61
2018-12-18T06:56:17.575Z,1017.65
2018-12-18T06:57:17.279Z,1017.63
2018-12-18T06:58:17.266Z,1017.62
2018-12-18T06:59:17.262Z,1017.57
2018-12-18T07:00:17.264Z,1017.63
2018-12-18T07:01:17.233Z,1017.62
2018-12-18T07:02:17.333Z,1017.64
2018-12-18T07:03:17.222Z,1017.72
2018-12-18T07:04:17.202Z,1017.68
2018-12-18T07:05:17.273Z,1017.68
2018-12-18T07:06:17.185Z,1017.71
2018-12-18T07:07:17.215Z,1017.70
2018-12-18T07:08:17.207Z,1017.74
2018-12-18T07:09:17.778Z,1017.67
2018-12-18T07:10:17.161Z,1017.61
2018-12-18T07:11:17.186Z,1017.63
2018-12-18T07:12:17.114Z,1017.59
2018-12-18T07:13:17.392Z,1017.57
2018-12-18T07:14:17.092Z,1017.64
2018-12-18T07:15:17.114Z,1017.65
2018-12-18T07:16:17.107Z,1017.64
2018-12-18T07:17:17.078Z,1017.61
2018-12-18T07:18:17.052Z,1017.62
2018-12-18T07:19:17.250Z,1017.60
2018-12-18T07:20:17.036Z,1017.57
2018-12-18T07:21:17.078Z,1017.53
2018-12-18T07:22:17.048Z,1017.50
2018-12-18T07:23:17.075Z,1017.47
2018-12-18T07:24:16.989Z,1017.52
2018-12-18T07:25:17.178Z,1017.41
2018-12-18T07:26:17.011Z,1017.41
2018-12-18T07:27:16.978Z,1017.40
2018-12-18T07:28:16.962Z,1017.39
2018-12-18T07:29:16.950Z,1017.47
2018-12-18T07:30:16.920Z,1017.44
2018-12-18T07:31:16.982Z,1017.41
2018-12-18T07:32:16.904Z,1017.39
2018-12-18T07:33:16.885Z,1017.34
2018-12-18T07:34:17.091Z,1017.29
2018-12-18T07:35:23.096Z,1017.24
2018-12-18T07:36:17.917Z,1017.21
2018-12-18T07:37:17.029Z,1017.17
2018-12-18T07:38:16.854Z,1017.09
2018-12-18T07:39:16.828Z,1017.04
2018-12-18T07:40:16.817Z,1017.04
2018-12-18T07:41:16.864Z,1016.96
2018-12-18T07:42:16.790Z,1016.96
2018-12-18T07:43:16.837Z,1016.99
2018-12-18T07:44:16.782Z,1016.96
2018-12-18T07:45:16.814Z,1016.96
2018-12-18T07:46:16.773Z,1016.95
2018-12-18T07:47:16.827Z,1016.96
2018-12-18T07:48:16.850Z,1016.94
2018-12-18T07:49:16.719Z,1016.91
2018-12-18T07:50:16.770Z,1016.82
2018-12-18T07:51:16.792Z,1016.79
2018-12-18T07:52:17.655Z,1016.76
2018-12-18T07:53:16.762Z,1016.80
2018-12-18T07:54:16.722Z,1016.80
2018-12-18T07:55:16.659Z,1016.82
2018-12-18T07:56:16.673Z,1016.86
2018-12-18T07:57:16.639Z,1016.88
2018-12-18T07:58:16.643Z,1016.85
2018-12-18T07:59:16.651Z,1016.81
2018-12-18T08:00:17.169Z,1016.76
2018-12-18T08:01:16.708Z,1016.74
2018-12-18T08:02:16.728Z,1016.80
2018-12-18T08:03:16.646Z,1016.79
2018-12-18T08:04:16.870Z,1016.79
2018-12-18T08:05:17.861Z,1016.72
2018-12-18T08:06:16.656Z,1016.75
2018-12-18T08:07:16.522Z,1016.79
2018-12-18T08:08:16.552Z,1016.77
2018-12-18T08:09:16.578Z,1016.76
2018-12-18T08:10:16.595Z,1016.74
2018-12-18T08:11:16.569Z,1016.72
2018-12-18T08:12:16.481Z,1016.73
2018-12-18T08:13:17.404Z,1016.75
2018-12-18T08:14:16.511Z,1016.76
2018-12-18T08:15:16.440Z,1016.69
2018-12-18T08:16:17.023Z,1016.72
2018-12-18T08:17:16.473Z,1016.71
2018-12-18T08:18:16.549Z,1016.73
2018-12-18T08:19:16.390Z,1016.70
2018-12-18T08:20:16.433Z,1016.72
2018-12-18T08:21:16.521Z,1016.72
2018-12-18T08:22:16.387Z,1016.74
2018-12-18T08:23:16.472Z,1016.79
2018-12-18T08:24:16.392Z,1016.83
2018-12-18T08:25:16.381Z,1016.77
2018-12-18T08:26:16.328Z,1016.79
2018-12-18T08:27:16.446Z,1016.76
2018-12-18T08:28:16.448Z,1016.76
2018-12-18T08:29:16.321Z,1016.76
2018-12-18T08:30:16.354Z,1016.78
2018-12-18T08:31:16.280Z,1016.79
2018-12-18T08:32:16.410Z,1016.80
2018-12-18T08:33:16.421Z,1016.89
2018-12-18T08:34:16.230Z,1016.87
2018-12-18T08:35:16.351Z,1016.93
2018-12-18T08:36:16.271Z,1016.94
2018-12-18T08:37:16.550Z,1016.95
2018-12-18T08:38:16.191Z,1016.92
2018-12-18T08:39:16.181Z,1016.90
2018-12-18T08:40:16.553Z,1016.90
2018-12-18T08:41:16.170Z,1016.95
2018-12-18T08:42:16.518Z,1016.95
2018-12-18T08:43:16.190Z,1016.97
2018-12-18T08:44:16.183Z,1016.92
2018-12-18T08:45:16.355Z,1016.98
2018-12-18T08:46:16.247Z,1016.93
2018-12-18T08:47:16.131Z,1016.90
2018-12-18T08:48:16.205Z,1016.88
2018-12-18T08:49:16.088Z,1016.92
2018-12-18T08:50:16.060Z,1016.86
2018-12-18T08:51:16.067Z,1016.82
2018-12-18T08:52:16.128Z,1016.78
2018-12-18T08:53:16.119Z,1016.77
2018-12-18T08:54:16.159Z,1016.69
2018-12-18T08:55:16.957Z,1016.73
2018-12-18T08:56:16.053Z,1016.68
2018-12-18T08:57:16.131Z,1016.68
2018-12-18T08:58:16.022Z,1016.71
2018-12-18T08:59:16.017Z,1016.70
2018-12-18T09:00:16.000Z,1016.62
2018-12-18T09:01:16.074Z,1016.63
2018-12-18T09:02:15.952Z,1016.58
2018-12-18T09:03:16.276Z,1016.61
2018-12-18T09:04:16.152Z,1016.59
2018-12-18T09:05:15.911Z,1016.53
2018-12-18T09:06:15.908Z,1016.53
2018-12-18T09:07:15.893Z,1016.53
2018-12-18T09:08:15.887Z,1016.42
2018-12-18T09:09:15.917Z,1016.48
2018-12-18T09:10:15.849Z,1016.44
2018-12-18T09:11:15.843Z,1016.44
2018-12-18T09:12:15.823Z,1016.43
2018-12-18T09:13:15.964Z,1016.42
2018-12-18T09:14:15.848Z,1016.41
2018-12-18T09:15:15.798Z,1016.42
2018-12-18T09:16:15.882Z,1016.43
2018-12-18T09:17:15.885Z,1016.42
2018-12-18T09:18:15.766Z,1016.43
2018-12-18T09:19:15.785Z,1016.42
2018-12-18T09:20:15.791Z,1016.40
2018-12-18T09:21:15.781Z,1016.40
2018-12-18T09:22:15.709Z,1016.31
2018-12-18T09:23:16.057Z,1016.32
2018-12-18T09:24:15.747Z,1016.28
2018-12-18T09:25:15.872Z,1016.29
2018-12-18T09:26:15.692Z,1016.26
2018-12-18T09:27:15.775Z,1016.26
2018-12-18T09:28:15.685Z,1016.27
2018-12-18T09:29:15.722Z,1016.30
2018-12-18T09:30:16.158Z,1016.23
2018-12-18T09:31:15.642Z,1016.25
2018-12-18T09:32:15.646Z,1016.26
2018-12-18T09:33:15.589Z,1016.28
2018-12-18T09:34:15.592Z,1016.31
2018-12-18T09:35:15.659Z,1016.26
2018-12-18T09:36:15.711Z,1016.29
2018-12-18T09:37:15.586Z,1016.27
2018-12-18T09:38:15.534Z,1016.26
2018-12-18T09:39:15.614Z,1016.30
2018-12-18T09:40:15.528Z,1016.26
2018-12-18T09:41:15.503Z,1016.26
2018-12-18T09:42:15.556Z,1016.29
2018-12-18T09:43:15.655Z,1016.29
2018-12-18T09:44:15.511Z,1016.27
2018-12-18T09:45:15.544Z,1016.24
2018-12-18T09:46:15.523Z,1016.26
2018-12-18T09:47:15.549Z,1016.21
2018-12-18T09:48:15.429Z,1016.21
2018-12-18T09:49:15.436Z,1016.15
2018-12-18T09:50:15.851Z,1016.13
2018-12-18T09:51:15.451Z,1016.12
2018-12-18T09:52:15.673Z,1016.14
2018-12-18T09:53:15.384Z,1016.14
2018-12-18T09:54:15.424Z,1016.10
2018-12-18T09:55:15.717Z,1016.10
2018-12-18T09:56:16.508Z,1016.10
2018-12-18T09:57:16.357Z,1016.09
2018-12-18T09:58:15.319Z,1016.09
2018-12-18T09:59:15.386Z,1016.06
2018-12-18T10:00:15.345Z,1016.00
2018-12-18T10:01:15.329Z,1016.01
2018-12-18T10:02:15.288Z,1016.04
2018-12-18T10:03:15.263Z,1016.04
2018-12-18T10:04:15.344Z,1016.06
2018-12-18T10:05:15.244Z,1016.05
2018-12-18T10:06:15.268Z,1016.03
2018-12-18T10:07:15.751Z,1015.96
2018-12-18T10:08:15.260Z,1015.98
2018-12-18T10:09:15.347Z,1016.00
2018-12-18T10:10:15.298Z,1015.91
2018-12-18T10:11:15.170Z,1015.94
2018-12-18T10:12:15.156Z,1015.88
2018-12-18T10:13:15.196Z,1015.80
2018-12-18T10:14:15.154Z,1015.79
2018-12-18T10:15:15.169Z,1015.83
2018-12-18T10:16:15.119Z,1015.79
2018-12-18T10:17:15.146Z,1015.78
2018-12-18T10:18:15.100Z,1015.72
2018-12-18T10:19:15.158Z,1015.65
2018-12-18T10:20:15.121Z,1015.60
2018-12-18T10:21:15.104Z,1015.55
2018-12-18T10:22:15.124Z,1015.58
2018-12-18T10:23:15.038Z,1015.48
2018-12-18T10:24:16.567Z,1015.51
2018-12-18T10:25:15.035Z,1015.55
2018-12-18T10:26:15.009Z,1015.51
2018-12-18T10:27:14.988Z,1015.67
2018-12-18T10:28:15.113Z,1015.64
2018-12-18T10:29:14.973Z,1015.66
2018-12-18T10:30:15.076Z,1015.66
2018-12-18T10:31:14.993Z,1015.68
2018-12-18T10:32:15.105Z,1015.60
2018-12-18T10:33:15.004Z,1015.59
2018-12-18T10:34:15.030Z,1015.58
2018-12-18T10:35:14.929Z,1015.65
2018-12-18T10:36:14.914Z,1015.59
2018-12-18T10:37:14.898Z,1015.54
2018-12-18T10:38:15.021Z,1015.49
2018-12-18T10:39:14.866Z,1015.46
2018-12-18T10:40:14.847Z,1015.52
2018-12-18T10:41:14.847Z,1015.46
2018-12-18T10:42:14.858Z,1015.34
2018-12-18T10:43:14.836Z,1015.36
2018-12-18T10:44:14.854Z,1015.20
2018-12-18T10:45:14.848Z,1015.28
2018-12-18T10:46:14.794Z,1015.23
2018-12-18T10:47:14.809Z,1015.21
2018-12-18T10:48:14.788Z,1015.27
2018-12-18T10:49:14.854Z,1015.19
2018-12-18T10:50:14.756Z,1015.28
2018-12-18T10:51:14.886Z,1015.32
2018-12-18T10:52:14.868Z,1015.39
2018-12-18T10:53:14.707Z,1015.28
2018-12-18T10:54:14.703Z,1015.34
2018-12-18T10:55:15.685Z,1015.39
2018-12-18T10:56:14.825Z,1015.34
2018-12-18T10:57:14.670Z,1015.35
2018-12-18T10:58:14.652Z,1015.27
2018-12-18T10:59:14.810Z,1015.27
2018-12-18T11:00:14.668Z,1015.19
2018-12-18T11:01:14.624Z,1015.22
2018-12-18T11:02:14.771Z,1015.12
2018-12-18T11:03:14.751Z,1015.08
2018-12-18T11:04:14.607Z,1015.11
2018-12-18T11:05:14.570Z,1015.14
2018-12-18T11:06:14.642Z,1015.02
2018-12-18T11:07:14.612Z,1015.04
2018-12-18T11:08:14.649Z,1015.00
2018-12-18T11:09:14.561Z,1015.08
2018-12-18T11:10:14.560Z,1015.04
2018-12-18T11:11:14.540Z,1015.09
2018-12-18T11:12:14.497Z,1014.95
2018-12-18T11:13:14.633Z,1015.04
2018-12-18T11:14:14.468Z,1014.99
2018-12-18T11:15:14.456Z,1015.03
2018-12-18T11:16:14.451Z,1014.99
2018-12-18T11:17:14.461Z,1014.97
2018-12-18T11:18:14.428Z,1015.01
2018-12-18T11:19:15.133Z,1014.94
2018-12-18T11:20:14.417Z,1014.96
2018-12-18T11:21:14.403Z,1014.85
2018-12-18T11:22:14.437Z,1014.83
2018-12-18T11:23:14.375Z,1014.88
2018-12-18T11:24:14.359Z,1014.79
2018-12-18T11:25:14.410Z,1014.79
2018-12-18T11:26:14.342Z,1014.76
2018-12-18T11:27:14.355Z,1014.76
2018-12-18T11:28:14.344Z,1014.66
2018-12-18T11:29:14.304Z,1014.63
2018-12-18T11:30:14.307Z,1014.62
2018-12-18T11:31:14.433Z,1014.58
2018-12-18T11:32:14.426Z,1014.57
2018-12-18T11:33:14.431Z,1014.60
2018-12-18T11:34:14.261Z,1014.57
2018-12-18T11:35:14.237Z,1014.54
2018-12-18T11:36:16.683Z,1014.50
2018-12-18T11:37:14.311Z,1014.49
2018-12-18T11:38:14.218Z,1014.45
2018-12-18T11:39:14.273Z,1014.45
2018-12-18T11:40:14.203Z,1014.50
2018-12-18T11:41:14.246Z,1014.45
2018-12-18T11:42:14.158Z,1014.51
2018-12-18T11:43:14.195Z,1014.33
2018-12-18T11:44:14.141Z,1014.40
2018-12-18T11:45:14.133Z,1014.40
2018-12-18T11:46:14.130Z,1014.38
2018-12-18T11:47:14.112Z,1014.39
2018-12-18T11:48:14.380Z,1014.34
2018-12-18T11:49:14.148Z,1014.35
2018-12-18T11:50:14.071Z,1014.33
2018-12-18T11:51:14.152Z,1014.34
2018-12-18T11:52:14.041Z,1014.24
2018-12-18T11:53:14.032Z,1014.35
2018-12-18T11:54:14.176Z,1014.27
2018-12-18T11:55:14.021Z,1014.29
2018-12-18T11:56:14.027Z,1014.19
2018-12-18T11:57:14.123Z,1014.17
2018-12-18T11:58:14.016Z,1014.19
2018-12-18T11:59:15.348Z,1014.22
2018-12-18T12:00:13.982Z,1014.24
2018-12-18T12:01:13.951Z,1014.16
2018-12-18T12:02:13.951Z,1014.14
2018-12-18T12:03:13.964Z,1014.08
2018-12-18T12:04:13.952Z,1014.12
2018-12-18T12:05:13.909Z,1014.07